Time;durP1;ratioP1;P1;durP2;ratioP2;P2;SDS_P1;SDS_P2;PMS_P1;PMS_P2;Temp;Humidity;BMP_temperature;BMP_pressure;BME280_temperature;BME280_humidity;BME280_pressure;Samples;Min_cycle;Max_cycle;Signal;HPM_P1;HPM_P2
2023/10/09 00:00:51;;;;;;;5.90;1.90;;;;;;;16.41;100.00;101307.56;5050417;28;19921;-69
2023/10/09 00:03:18;;;;;;;8.45;2.45;;;;;;;16.39;100.00;101301.63;5036021;28;20048;-68
2023/10/09 00:05:47;;;;;;;4.38;2.15;;;;;;;16.38;100.00;101293.91;5033747;28;20033;-69
2023/10/09 00:08:19;;;;;;;5.50;1.75;;;;;;;16.37;100.00;101287.81;5046663;28;20036;-68
2023/10/09 00:10:49;;;;;;;6.10;2.28;;;;;;;16.37;100.00;101282.56;5036864;28;20037;-69
2023/10/09 00:13:14;;;;;;;3.00;1.73;;;;;;;16.40;100.00;101292.75;5045626;28;20112;-69
2023/10/09 00:15:41;;;;;;;5.47;1.80;;;;;;;16.42;100.00;101271.56;5046925;28;20132;-69
2023/10/09 00:18:11;;;;;;;7.25;1.80;;;;;;;16.41;100.00;101283.06;5038094;28;20453;-69
2023/10/09 00:20:42;;;;;;;5.20;2.38;;;;;;;16.38;100.00;101283.38;5037991;28;20087;-69
2023/10/09 00:23:15;;;;;;;4.82;1.63;;;;;;;16.44;100.00;101286.19;5042948;28;20116;-69
2023/10/09 00:26:05;;;;;;;3.38;1.92;;;;;;;16.58;100.00;101284.69;5045490;28;20477;-69
2023/10/09 00:28:30;;;;;;;9.80;2.20;;;;;;;16.68;100.00;101276.69;5036655;28;20037;-69
2023/10/09 00:30:56;;;;;;;6.65;2.30;;;;;;;16.66;99.83;101268.97;5043610;28;20088;-69
2023/10/09 00:33:22;;;;;;;3.72;1.90;;;;;;;16.61;100.00;101273.84;5039581;28;20072;-69
2023/10/09 00:35:54;;;;;;;5.65;1.85;;;;;;;16.61;100.00;101271.22;5046121;28;20098;-69
2023/10/09 00:40:47;;;;;;;3.67;1.90;;;;;;;16.48;100.00;101261.22;5041723;28;20226;-69
2023/10/09 00:43:14;;;;;;;5.00;2.03;;;;;;;16.62;99.60;101259.72;5040490;28;20474;-68
2023/10/09 00:45:43;;;;;;;2.92;1.13;;;;;;;16.77;96.19;101263.38;5038405;28;20033;-69
2023/10/09 00:48:09;;;;;;;4.03;1.23;;;;;;;16.88;95.82;101263.03;5039736;28;20120;-69
2023/10/09 00:50:36;;;;;;;2.05;0.82;;;;;;;16.88;93.78;101260.41;5042485;28;20079;-68
2023/10/09 00:53:09;;;;;;;1.55;0.60;;;;;;;16.97;93.31;101260.41;5048981;28;20040;-68
2023/10/09 00:55:44;;;;;;;5.22;0.50;;;;;;;17.09;89.76;101251.13;5049349;28;20102;-69
2023/10/09 00:58:14;;;;;;;1.58;0.47;;;;;;;17.14;89.25;101254.91;5039381;28;20194;-69
2023/10/09 01:03:18;;;;;;;2.33;0.40;;;;;;;16.98;89.39;101249.69;5045833;28;20045;-69
2023/10/09 01:05:58;;;;;;;2.22;0.50;;;;;;;16.97;89.58;101247.25;5045063;28;20064;-69
2023/10/09 01:11:21;;;;;;;5.30;0.52;;;;;;;16.80;90.03;101241.97;5039131;28;20026;-69
2023/10/09 01:16:17;;;;;;;1.30;0.30;;;;;;;16.95;88.59;101233.41;5042481;28;20413;-68
2023/10/09 01:18:44;;;;;;;2.85;0.63;;;;;;;16.83;87.20;101235.56;5042158;28;20417;-69
2023/10/09 01:21:14;;;;;;;3.03;0.30;;;;;;;16.85;85.58;101233.59;5048454;28;20523;-69
2023/10/09 01:26:44;;;;;;;1.15;0.30;;;;;;;16.92;85.48;101243.28;5046870;28;20443;-69
2023/10/09 01:29:14;;;;;;;1.77;0.40;;;;;;;17.00;84.66;101236.38;5035873;28;20075;-69
2023/10/09 01:31:44;;;;;;;5.25;0.45;;;;;;;17.04;84.24;101238.47;5042463;28;20033;-68
2023/10/09 01:34:10;;;;;;;1.50;0.35;;;;;;;17.08;83.07;101233.69;5044652;28;20135;-69
2023/10/09 01:36:41;;;;;;;3.47;0.20;;;;;;;17.07;83.74;101237.31;5049527;28;20122;-70
2023/10/09 01:39:28;;;;;;;1.38;0.20;;;;;;;17.05;84.25;101241.94;5043447;28;20111;-70
2023/10/09 01:42:01;;;;;;;3.38;0.22;;;;;;;16.98;83.90;101230.47;5042280;28;20056;-69
2023/10/09 01:44:30;;;;;;;3.13;0.30;;;;;;;16.97;82.83;101236.72;5046950;28;20025;-70
2023/10/09 01:46:58;;;;;;;0.75;0.25;;;;;;;16.98;83.79;101223.38;5042168;28;20048;-69
2023/10/09 01:49:31;;;;;;;0.93;0.30;;;;;;;16.94;83.12;101231.78;5041747;28;20044;-69
2023/10/09 01:52:01;;;;;;;2.72;0.20;;;;;;;16.96;83.50;101237.69;5044200;28;20031;-68
2023/10/09 01:54:39;;;;;;;5.40;0.32;;;;;;;16.95;83.48;101234.25;5042391;28;20495;-69
2023/10/09 01:57:09;;;;;;;0.73;0.30;;;;;;;16.93;83.41;101241.47;5050618;28;20117;-69
2023/10/09 01:59:38;;;;;;;1.00;0.30;;;;;;;16.86;83.68;101251.84;5044966;28;20116;-69
2023/10/09 02:02:24;;;;;;;2.80;0.32;;;;;;;16.82;83.00;101250.53;5042772;28;20033;-69
2023/10/09 02:04:51;;;;;;;0.85;0.20;;;;;;;16.85;83.25;101258.09;5043539;28;20029;-69
2023/10/09 02:07:22;;;;;;;0.70;0.20;;;;;;;16.77;82.88;101255.47;5044084;28;20056;-69
2023/10/09 02:09:48;;;;;;;1.98;0.20;;;;;;;16.76;82.74;101264.34;5050108;28;20417;-68
2023/10/09 02:12:13;;;;;;;0.60;0.20;;;;;;;16.83;82.50;101259.25;5044157;28;20526;-69
2023/10/09 02:14:41;;;;;;;3.42;0.20;;;;;;;16.85;82.41;101267.81;5048545;28;20536;-69
2023/10/09 02:17:28;;;;;;;1.73;0.20;;;;;;;16.83;82.43;101257.44;5045540;28;20036;-69
2023/10/09 02:19:54;;;;;;;0.63;0.10;;;;;;;16.80;81.52;101256.94;5045549;28;20052;-67
2023/10/09 02:22:20;;;;;;;0.82;0.10;;;;;;;16.83;81.50;101262.72;5045926;28;20041;-68
2023/10/09 02:27:33;;;;;;;1.02;0.10;;;;;;;16.90;80.11;101278.66;5035392;28;20090;-69
2023/10/09 02:29:58;;;;;;;1.15;0.20;;;;;;;16.84;79.01;101280.16;5041721;28;20108;-69
2023/10/09 02:32:28;;;;;;;3.75;0.30;;;;;;;16.79;80.83;101277.19;5037952;28;20049;-68
2023/10/09 02:34:53;;;;;;;2.60;0.30;;;;;;;16.72;80.18;101273.56;5051720;28;20029;-69
2023/10/09 02:37:25;;;;;;;4.57;0.20;;;;;;;16.70;80.15;101275.53;5052873;28;20405;-68
2023/10/09 02:39:52;;;;;;;0.30;0.10;;;;;;;16.72;80.31;101273.56;5042162;28;20029;-69
2023/10/09 02:42:25;;;;;;;2.08;0.10;;;;;;;16.74;80.73;101274.22;5043684;28;20424;-68
2023/10/09 02:44:51;;;;;;;3.80;0.20;;;;;;;16.66;81.07;101276.84;5042961;28;20025;-68
2023/10/09 02:47:20;;;;;;;1.98;0.20;;;;;;;16.64;81.25;101273.56;5049788;28;20504;-68
2023/10/09 02:49:48;;;;;;;1.00;0.20;;;;;;;16.63;81.03;101276.31;5045136;28;20028;-69
2023/10/09 02:52:18;;;;;;;1.92;0.20;;;;;;;16.58;81.02;101268.91;5034731;28;20083;-69
2023/10/09 02:54:47;;;;;;;0.77;0.20;;;;;;;16.51;80.91;101274.03;5052692;28;20543;-68
2023/10/09 02:57:21;;;;;;;2.25;0.10;;;;;;;16.50;81.13;101275.03;5038063;28;20112;-69
2023/10/09 02:59:47;;;;;;;0.70;0.20;;;;;;;16.47;81.24;101269.25;5041070;28;20515;-69
2023/10/09 03:02:13;;;;;;;1.75;0.10;;;;;;;16.42;81.71;101275.00;5047163;28;20061;-69
2023/10/09 03:04:39;;;;;;;0.90;0.10;;;;;;;16.47;81.02;101287.69;5044864;28;20067;-69
2023/10/09 03:07:05;;;;;;;0.73;0.30;;;;;;;16.60;79.46;101293.25;5046167;28;20029;-69
2023/10/09 03:09:32;;;;;;;2.03;0.20;;;;;;;16.70;79.40;101277.34;5047701;28;20070;-69
2023/10/09 03:12:02;;;;;;;2.40;0.20;;;;;;;16.64;78.82;101286.72;5044042;28;20123;-69
2023/10/09 03:14:28;;;;;;;0.28;0.10;;;;;;;16.61;79.39;101284.38;5042972;28;20030;-69
2023/10/09 03:16:57;;;;;;;1.23;0.20;;;;;;;16.63;79.37;101286.84;5049326;28;20029;-68
2023/10/09 03:19:28;;;;;;;0.95;0.20;;;;;;;16.61;79.83;101287.00;5040919;28;20036;-69
2023/10/09 03:21:53;;;;;;;1.23;0.28;;;;;;;16.51;80.26;101289.81;5054443;28;20441;-69
2023/10/09 03:24:22;;;;;;;4.85;0.30;;;;;;;16.41;80.60;101299.66;5049113;28;20039;-69
2023/10/09 03:26:49;;;;;;;0.63;0.10;;;;;;;16.49;80.31;101298.88;5038268;28;20461;-69
2023/10/09 03:29:14;;;;;;;1.08;0.10;;;;;;;16.50;80.00;101298.69;5043685;28;20036;-69
2023/10/09 03:31:42;;;;;;;6.10;0.60;;;;;;;16.53;78.73;101292.28;5045256;28;20106;-69
2023/10/09 03:34:10;;;;;;;1.40;0.20;;;;;;;16.54;79.67;101297.34;5043745;28;20020;-69
2023/10/09 03:36:39;;;;;;;2.95;0.63;;;;;;;16.52;79.43;101293.28;5045442;28;20033;-68
2023/10/09 03:39:18;;;;;;;6.45;0.35;;;;;;;16.45;80.53;101303.63;5052606;28;20130;-69
2023/10/09 03:41:47;;;;;;;1.35;0.10;;;;;;;16.45;80.03;101295.72;5049558;28;20037;-69
2023/10/09 03:44:17;;;;;;;1.58;0.20;;;;;;;16.49;80.06;101285.72;5042072;28;20033;-69
2023/10/09 03:46:44;;;;;;;0.43;0.10;;;;;;;16.39;80.39;101285.03;5036190;28;21464;-69
2023/10/09 03:49:11;;;;;;;0.68;0.20;;;;;;;16.39;80.49;101282.41;5044364;28;20031;-69
2023/10/09 03:51:37;;;;;;;8.07;0.20;;;;;;;16.33;79.95;101290.94;5050717;28;20112;-69
2023/10/09 03:54:07;;;;;;;1.92;0.55;;;;;;;16.32;80.32;101284.03;5043206;28;20536;-69
2023/10/09 03:56:33;;;;;;;0.82;0.20;;;;;;;16.25;80.41;101279.41;5043940;28;20033;-69
2023/10/09 03:58:59;;;;;;;2.55;0.10;;;;;;;16.20;80.20;101273.81;5038849;28;20045;-68
2023/10/09 04:03:59;;;;;;;0.50;0.20;;;;;;;16.03;81.51;101280.03;5034230;28;20033;-68
2023/10/09 04:06:31;;;;;;;;;;;;;;;15.92;80.74;101273.28;5041476;28;20056;-68
2023/10/09 04:11:46;;;;;;;1.20;0.20;;;;;;;15.83;82.03;101262.88;5042520;28;20037;-68
2023/10/09 04:14:33;;;;;;;1.05;0.25;;;;;;;15.97;80.40;101264.91;5040856;28;20094;-68
2023/10/09 04:17:33;;;;;;;2.22;0.20;;;;;;;16.09;80.47;101266.22;5042042;28;20024;-69
2023/10/09 04:22:39;;;;;;;0.68;0.10;;;;;;;16.14;79.55;101269.19;5044107;28;20051;-68
2023/10/09 04:25:15;;;;;;;3.85;0.10;;;;;;;16.08;79.23;101271.66;5045084;28;20032;-68
2023/10/09 04:27:40;;;;;;;;;;;;;;;16.08;78.99;101267.22;5042269;28;20831;-69
2023/10/09 04:30:07;;;;;;;1.33;0.25;;;;;;;15.96;81.00;101262.44;5048444;28;19920;-68
2023/10/09 04:32:34;;;;;;;6.50;0.20;;;;;;;15.75;82.87;101260.22;5046047;28;20037;-68
2023/10/09 04:37:51;;;;;;;1.70;0.10;;;;;;;15.53;84.43;101259.81;5039237;28;20141;-69
2023/10/09 04:43:06;;;;;;;0.80;0.20;;;;;;;15.25;86.48;101253.91;5044714;28;20068;-68
2023/10/09 04:46:06;;;;;;;1.25;0.20;;;;;;;15.11;87.57;101253.66;5044742;28;20124;-68
2023/10/09 04:48:32;;;;;;;0.90;0.28;;;;;;;15.03;87.94;101258.88;5020593;28;20818;-68
2023/10/09 04:54:12;;;;;;;0.75;0.10;;;;;;;15.43;83.80;101251.22;5015020;28;20155;-68
2023/10/09 04:56:51;;;;;;;0.68;0.17;;;;;;;15.65;81.75;101249.00;5017666;28;20044;-68
2023/10/09 04:59:24;;;;;;;1.88;0.40;;;;;;;15.66;81.60;101261.16;5017548;28;20041;-69
2023/10/09 05:01:57;;;;;;;0.30;0.10;;;;;;;15.56;82.20;101256.88;5021283;28;20041;-68
2023/10/09 05:04:42;;;;;;;2.90;0.50;;;;;;;15.23;84.17;101250.59;5015497;28;20030;-68
2023/10/09 05:07:23;;;;;;;3.00;0.10;;;;;;;14.90;86.24;101270.59;5019252;28;20049;-68
2023/10/09 05:09:55;;;;;;;0.95;0.20;;;;;;;14.73;88.16;101268.81;5019359;28;20104;-68
2023/10/09 05:12:26;;;;;;;3.05;0.20;;;;;;;14.66;89.19;101264.31;5021368;28;20045;-68
2023/10/09 05:17:56;;;;;;;1.08;0.10;;;;;;;15.11;84.03;101261.53;5026731;28;20119;-68
2023/10/09 05:22:59;;;;;;;1.63;0.10;;;;;;;15.35;82.72;101255.59;5026794;28;20045;-67
2023/10/09 05:26:26;;;;;;;4.35;0.20;;;;;;;15.42;82.12;101254.00;5023362;28;20076;-67
2023/10/09 05:28:48;;;;;;;0.60;0.10;;;;;;;15.47;81.54;101252.53;5022592;28;20504;-68
2023/10/09 05:31:44;;;;;;;1.08;0.10;;;;;;;15.48;81.65;101254.19;5016589;28;20442;-68
2023/10/09 05:34:01;;;;;;;2.55;0.10;;;;;;;15.52;81.16;101260.78;5017632;28;20041;-69
2023/10/09 05:38:59;;;;;;;1.60;0.10;;;;;;;15.58;80.97;101259.38;5032281;28;20061;-68
2023/10/09 05:41:52;;;;;;;2.75;0.50;;;;;;;15.57;81.21;101266.41;5025661;28;20033;-68
2023/10/09 05:49:54;;;;;;;0.65;0.10;;;;;;;15.04;84.76;101271.00;5035891;28;20123;-68
2023/10/09 06:06:02;;;;;;;1.33;0.20;;;;;;;15.88;80.37;101279.00;5035336;28;20033;-68
2023/10/09 06:11:49;;;;;;;2.20;0.32;;;;;;;15.75;80.63;101274.19;5036610;28;20040;-68
2023/10/09 06:16:41;;;;;;;1.45;0.10;;;;;;;15.94;80.14;101275.75;5036179;28;20073;-67
2023/10/09 06:19:26;;;;;;;3.97;0.20;;;;;;;16.00;79.92;101280.38;5036778;28;20030;-68
2023/10/09 06:24:43;;;;;;;0.40;0.10;;;;;;;16.10;79.05;101280.19;5039202;28;20117;-66
2023/10/09 06:29:38;;;;;;;1.27;0.20;;;;;;;16.19;78.91;101277.44;5039279;28;20466;-67
2023/10/09 06:35:15;;;;;;;1.10;0.10;;;;;;;16.33;78.23;101283.06;5042025;28;20087;-67
2023/10/09 06:43:17;;;;;;;4.75;0.20;;;;;;;16.31;78.17;101292.91;5043070;28;20060;-68
2023/10/09 06:45:46;;;;;;;1.20;0.10;;;;;;;16.28;78.61;101283.53;5041892;28;20021;-67
2023/10/09 06:51:34;;;;;;;1.35;0.22;;;;;;;16.34;77.69;101287.31;5042667;28;20044;-66
2023/10/09 06:59:03;;;;;;;4.00;0.10;;;;;;;16.44;77.35;101283.56;5047308;28;20040;-66
2023/10/09 07:04:45;;;;;;;1.55;0.20;;;;;;;16.56;76.93;101276.16;5041338;28;20041;-65
2023/10/09 07:07:20;;;;;;;0.85;0.10;;;;;;;16.64;75.75;101281.44;5041799;28;20159;-65
2023/10/09 07:12:42;;;;;;;1.75;0.10;;;;;;;16.75;76.07;101286.41;5043254;28;20083;-66
2023/10/09 07:22:52;;;;;;;0.65;0.10;;;;;;;16.86;76.86;101293.97;5047037;28;20110;-66
2023/10/09 07:25:40;;;;;;;0.88;0.15;;;;;;;16.89;76.83;101293.63;5044602;28;20045;-66
2023/10/09 07:28:28;;;;;;;0.43;0.10;;;;;;;16.96;76.79;101285.06;5047508;28;20056;-66
2023/10/09 07:30:57;;;;;;;0.57;0.20;;;;;;;17.03;76.18;101289.47;5035366;28;20056;-65
2023/10/09 07:33:31;;;;;;;4.70;0.20;;;;;;;17.08;75.31;101291.63;5040171;28;20032;-66
2023/10/09 07:36:05;;;;;;;0.20;0.20;;;;;;;17.15;75.25;101285.53;5047896;28;20021;-65
2023/10/09 07:38:37;;;;;;;2.38;0.10;;;;;;;17.20;75.21;101285.03;5047551;28;20091;-65
2023/10/09 07:43:39;;;;;;;1.52;0.10;;;;;;;17.37;75.15;101286.63;5036272;28;20564;-65
2023/10/09 07:48:55;;;;;;;5.30;0.10;;;;;;;17.46;74.95;101282.16;5035052;28;20095;-65
2023/10/09 07:51:23;;;;;;;0.65;0.30;;;;;;;17.47;75.56;101279.38;5031242;28;20022;-66
2023/10/09 07:54:06;;;;;;;0.40;0.10;;;;;;;17.54;75.49;101287.38;5044956;28;20366;-65
2023/10/09 07:56:38;;;;;;;0.22;0.00;;;;;;;17.63;74.67;101283.72;5030801;28;20041;-65
2023/10/09 07:59:10;;;;;;;3.92;0.13;;;;;;;17.72;74.27;101285.38;5037681;28;20112;-66
2023/10/09 08:07:09;;;;;;;0.95;0.20;;;;;;;17.78;74.83;101273.34;5045260;28;20056;-66
2023/10/09 08:09:48;;;;;;;2.58;0.13;;;;;;;17.81;75.03;101278.28;5043204;28;20025;-65
2023/10/09 08:18:09;;;;;;;4.35;0.17;;;;;;;18.13;73.10;101272.81;5036031;28;20110;-66
2023/10/09 08:23:33;;;;;;;0.20;0.10;;;;;;;18.32;72.81;101278.63;5038989;28;20111;-67
2023/10/09 08:26:13;;;;;;;1.25;0.10;;;;;;;18.43;72.52;101280.88;5037022;28;20022;-66
2023/10/09 08:28:43;;;;;;;0.70;0.10;;;;;;;18.57;72.22;101266.88;5036430;28;20048;-67
2023/10/09 08:33:57;;;;;;;2.83;0.10;;;;;;;18.93;70.76;101263.63;5037369;28;20035;-67
2023/10/09 08:36:28;;;;;;;2.05;0.30;;;;;;;19.06;71.17;101258.56;5035951;28;20436;-67
2023/10/09 08:38:58;;;;;;;0.75;0.10;;;;;;;19.02;71.46;101262.56;5037529;28;20036;-67
2023/10/09 08:41:25;;;;;;;0.50;0.10;;;;;;;18.97;71.80;101262.28;5035721;28;20030;-67
2023/10/09 08:43:53;;;;;;;0.25;0.15;;;;;;;19.03;71.73;101262.38;5039641;28;20024;-66
2023/10/09 08:46:28;;;;;;;3.50;0.15;;;;;;;19.14;71.39;101255.84;5034936;28;20195;-67
2023/10/09 08:48:56;;;;;;;0.93;0.20;;;;;;;19.24;71.51;101259.03;5041546;28;20053;-67
2023/10/09 08:51:24;;;;;;;5.57;0.30;;;;;;;19.45;71.42;101253.00;5036768;28;20048;-68
2023/10/09 08:53:49;;;;;;;4.00;0.10;;;;;;;19.45;71.96;101259.09;5041460;28;20057;-67
2023/10/09 08:56:22;;;;;;;1.70;0.30;;;;;;;19.42;70.30;101256.00;5038515;28;20118;-68
2023/10/09 08:58:58;;;;;;;1.40;0.10;;;;;;;19.55;70.84;101259.69;5038248;28;20493;-68
2023/10/09 09:01:24;;;;;;;2.13;0.20;;;;;;;19.64;70.45;101256.94;5038863;28;20489;-68
2023/10/09 09:03:51;;;;;;;0.52;0.10;;;;;;;19.59;72.37;101254.03;5038808;28;20052;-67
2023/10/09 09:06:19;;;;;;;0.65;0.20;;;;;;;19.50;73.37;101259.38;5043392;28;20120;-68
2023/10/09 09:08:45;;;;;;;4.55;0.22;;;;;;;19.44;74.19;101262.75;5048112;28;20033;-68
2023/10/09 09:11:30;;;;;;;1.38;0.30;;;;;;;19.52;74.51;101254.75;5046821;28;20021;-68
2023/10/09 09:13:58;;;;;;;1.60;0.30;;;;;;;19.60;74.58;101255.66;5044683;28;20032;-68
2023/10/09 09:16:31;;;;;;;1.23;0.20;;;;;;;19.61;74.24;101257.31;5041708;28;20436;-68
2023/10/09 09:19:13;;;;;;;2.15;0.30;;;;;;;19.61;75.28;101252.00;5047698;28;20392;-68
2023/10/09 09:21:42;;;;;;;2.58;0.50;;;;;;;19.63;75.44;101253.47;5045011;28;20029;-68
2023/10/09 09:26:58;;;;;;;2.78;0.40;;;;;;;19.65;77.16;101253.28;5045336;28;20487;-69
2023/10/09 09:29:36;;;;;;;3.58;0.50;;;;;;;19.68;76.39;101252.91;5046609;28;20082;-68
2023/10/09 09:32:20;;;;;;;4.15;0.38;;;;;;;19.75;75.63;101254.66;5049488;28;20060;-68
2023/10/09 09:34:49;;;;;;;2.38;0.47;;;;;;;20.01;75.04;101251.47;5043547;28;20036;-68
2023/10/09 09:37:34;;;;;;;1.75;0.50;;;;;;;20.18;73.61;101252.88;5042864;28;20571;-68
2023/10/09 09:40:00;;;;;;;1.48;0.50;;;;;;;20.27;74.92;101244.81;5045586;28;20440;-68
2023/10/09 09:42:31;;;;;;;4.13;0.88;;;;;;;20.25;75.41;101252.13;5048268;28;20032;-68
2023/10/09 09:45:02;;;;;;;4.05;1.40;;;;;;;20.21;75.23;101249.84;5050187;28;20039;-68
2023/10/09 09:47:29;;;;;;;2.63;0.90;;;;;;;20.24;75.76;101243.38;5048480;28;20083;-68
2023/10/09 09:50:11;;;;;;;4.65;1.15;;;;;;;20.28;75.87;101249.09;5046967;28;20017;-68
2023/10/09 09:52:40;;;;;;;4.10;1.35;;;;;;;20.32;76.69;101240.56;5042623;28;20021;-68
2023/10/09 09:55:22;;;;;;;2.90;1.58;;;;;;;20.41;77.19;101233.34;5040343;28;20059;-68
2023/10/09 09:57:51;;;;;;;5.22;2.25;;;;;;;20.61;77.01;101238.81;5039689;28;20037;-69
2023/10/09 10:03:32;;;;;;;11.20;1.55;;;;;;;20.71;76.97;101229.53;5050980;28;20768;-69
2023/10/09 10:06:05;;;;;;;8.30;2.70;;;;;;;20.73;77.18;101230.16;5051918;28;20447;-68
2023/10/09 10:08:32;;;;;;;5.10;2.50;;;;;;;20.79;77.61;101234.69;5047794;28;20524;-68
2023/10/09 10:11:05;;;;;;;8.13;2.35;;;;;;;20.76;78.25;101228.97;5057156;28;20496;-68
2023/10/09 10:13:42;;;;;;;7.10;2.90;;;;;;;20.80;78.29;101233.66;5054355;28;20079;-68
2023/10/09 10:19:07;;;;;;;7.63;2.90;;;;;;;20.96;79.17;101237.03;5048080;28;20059;-68
2023/10/09 10:21:42;;;;;;;9.65;2.42;;;;;;;20.99;78.58;101231.34;5049002;28;20045;-68
2023/10/09 10:24:28;;;;;;;6.60;3.05;;;;;;;21.05;78.96;101228.75;5050846;28;20487;-68
2023/10/09 10:27:24;;;;;;;9.65;3.33;;;;;;;21.16;79.46;101217.59;5060453;28;20044;-69
2023/10/09 10:30:12;;;;;;;9.65;4.40;;;;;;;21.37;79.82;101211.41;5061763;28;20122;-68
2023/10/09 10:33:09;;;;;;;12.98;4.15;;;;;;;21.51;79.15;101204.34;5047983;28;20041;-67
2023/10/09 10:38:43;;;;;;;9.20;3.88;;;;;;;21.55;79.36;101204.75;5036357;28;20311;-68
2023/10/09 10:41:12;;;;;;;8.18;3.85;;;;;;;21.56;79.02;101203.75;5040359;28;20095;-68
2023/10/09 10:46:30;;;;;;;10.80;4.03;;;;;;;21.44;80.38;101196.34;5040428;28;20123;-68
2023/10/09 10:51:38;;;;;;;10.57;5.97;;;;;;;21.59;81.29;101188.25;5032695;28;20048;-68
2023/10/09 10:54:47;;;;;;;14.15;7.05;;;;;;;21.61;81.89;101188.06;5035232;28;20051;-68
2023/10/09 10:56:52;;;;;;;17.10;8.18;;;;;;;21.56;82.48;101182.53;5033982;28;20120;-69
2023/10/09 10:59:26;;;;;;;16.00;6.85;;;;;;;21.53;82.64;101181.91;5041369;28;20123;-67
2023/10/09 11:02:22;;;;;;;20.73;8.65;;;;;;;21.61;83.06;101172.97;5041438;28;20082;-67
2023/10/09 11:04:53;;;;;;;14.48;7.10;;;;;;;21.83;82.61;101161.16;5035700;28;20124;-68
2023/10/09 11:15:45;;;;;;;15.43;8.30;;;;;;;21.96;82.83;101146.28;5039085;28;20041;-68
2023/10/09 11:21:25;;;;;;;12.23;6.95;;;;;;;22.10;81.75;101150.63;5033643;28;20489;-69
2023/10/09 11:23:57;;;;;;;14.57;8.48;;;;;;;21.83;81.87;101147.91;5036485;28;20079;-69
2023/10/09 11:26:31;;;;;;;16.27;7.80;;;;;;;21.87;82.36;101135.06;5041583;28;20043;-69
2023/10/09 11:32:09;;;;;;;18.45;8.98;;;;;;;22.29;82.38;101141.00;5040890;28;20064;-69
2023/10/09 11:34:36;;;;;;;17.60;8.30;;;;;;;22.31;81.44;101131.00;5033616;28;20045;-69
2023/10/09 11:37:15;;;;;;;15.93;9.45;;;;;;;22.37;81.83;101127.53;5040370;28;20079;-69
2023/10/09 11:39:52;;;;;;;18.83;8.45;;;;;;;22.42;81.54;101119.78;5040304;28;20053;-69
2023/10/09 11:42:38;;;;;;;14.98;7.25;;;;;;;22.48;81.40;101106.50;5038034;28;20025;-69
2023/10/09 11:45:20;;;;;;;15.50;7.82;;;;;;;22.57;81.73;101114.25;5034555;28;20029;-68
2023/10/09 11:48:03;;;;;;;18.95;8.45;;;;;;;22.64;81.24;101115.88;5037783;28;20041;-67
2023/10/09 11:55:54;;;;;;;16.60;7.30;;;;;;;22.59;81.28;101113.00;5042888;28;20045;-69
2023/10/09 11:58:24;;;;;;;15.23;8.05;;;;;;;22.68;81.36;101103.81;5038296;28;20216;-69
2023/10/09 12:00:58;;;;;;;11.38;6.82;;;;;;;22.80;81.31;101107.44;5033078;28;20057;-69
2023/10/09 12:03:29;;;;;;;17.05;9.00;;;;;;;22.92;80.75;101096.19;5036709;28;20044;-68
2023/10/09 12:06:14;;;;;;;15.50;8.27;;;;;;;22.88;80.67;101098.44;5040549;28;20061;-69
2023/10/09 12:09:05;;;;;;;17.50;8.88;;;;;;;23.06;80.21;101095.09;5034710;28;20037;-67
2023/10/09 12:11:31;;;;;;;16.65;7.75;;;;;;;23.08;80.09;101085.09;5036986;28;20040;-68
2023/10/09 12:13:57;;;;;;;20.02;8.82;;;;;;;23.03;80.21;101085.72;5036585;28;20393;-69
2023/10/09 12:16:27;;;;;;;20.55;8.05;;;;;;;22.94;80.62;101078.19;5048592;28;20769;-69
2023/10/09 12:18:57;;;;;;;15.40;8.18;;;;;;;22.88;80.75;101073.72;5041769;28;20047;-69
2023/10/09 12:21:23;;;;;;;13.68;7.85;;;;;;;22.74;81.31;101071.06;5034741;28;20080;-68
2023/10/09 12:23:49;;;;;;;15.00;8.57;;;;;;;22.65;81.57;101074.19;5036450;28;20040;-68
2023/10/09 12:26:14;;;;;;;12.10;7.22;;;;;;;22.54;81.70;101077.47;5035588;28;20033;-68
2023/10/09 12:28:45;;;;;;;12.00;6.93;;;;;;;22.48;81.70;101076.47;5040053;28;20029;-68
2023/10/09 12:31:14;;;;;;;13.77;8.15;;;;;;;22.49;81.78;101065.63;5039924;28;20049;-68
2023/10/09 12:33:40;;;;;;;13.60;7.70;;;;;;;22.44;81.61;101062.78;5043458;28;20583;-69
2023/10/09 12:36:06;;;;;;;13.00;7.10;;;;;;;22.35;82.22;101065.88;5040565;28;20090;-69
2023/10/09 12:38:31;;;;;;;14.20;8.13;;;;;;;22.35;81.93;101052.59;5041179;28;20107;-69
2023/10/09 12:43:52;;;;;;;16.42;6.95;;;;;;;22.38;81.91;101046.88;5043642;28;20115;-69
2023/10/09 12:46:18;;;;;;;10.90;6.65;;;;;;;22.35;82.38;101047.28;5046416;28;20630;-68
2023/10/09 12:48:47;;;;;;;11.45;5.90;;;;;;;22.29;82.70;101040.16;5046744;28;20376;-69
2023/10/09 12:51:16;;;;;;;11.38;6.57;;;;;;;22.25;83.15;101041.59;5052686;28;20025;-68
2023/10/09 12:53:45;;;;;;;15.18;7.40;;;;;;;22.24;83.00;101045.25;5038837;28;20061;-68
2023/10/09 12:56:12;;;;;;;11.70;7.05;;;;;;;22.20;82.31;101033.47;5036366;28;20684;-69
2023/10/09 12:58:38;;;;;;;11.40;6.15;;;;;;;22.20;82.48;101033.47;5039102;28;20025;-69
2023/10/09 13:01:11;;;;;;;13.68;7.78;;;;;;;22.24;82.52;101029.34;5035494;28;20025;-68
2023/10/09 13:03:40;;;;;;;11.82;7.15;;;;;;;22.24;82.71;101021.38;5041936;28;20171;-68
2023/10/09 13:06:14;;;;;;;15.75;7.90;;;;;;;22.24;82.51;101029.34;5038964;28;20496;-68
2023/10/09 13:08:45;;;;;;;11.60;6.60;;;;;;;22.18;81.95;101018.56;5040092;28;20047;-68
2023/10/09 13:11:11;;;;;;;12.63;6.55;;;;;;;22.19;81.46;101016.72;5041268;28;20025;-68
2023/10/09 13:13:46;;;;;;;13.48;6.75;;;;;;;22.13;81.49;101023.66;5041535;28;20121;-69
2023/10/09 13:16:25;;;;;;;14.98;7.50;;;;;;;22.13;81.96;101014.88;5045089;28;20029;-68
2023/10/09 13:18:56;;;;;;;10.35;5.75;;;;;;;22.14;82.56;101020.00;5044494;28;20044;-69
2023/10/09 13:21:37;;;;;;;12.10;5.60;;;;;;;22.16;82.69;101017.94;5039269;28;20075;-69
2023/10/09 13:24:03;;;;;;;10.88;6.45;;;;;;;22.26;82.20;101016.69;5036252;28;20041;-69
2023/10/09 13:26:29;;;;;;;10.75;6.68;;;;;;;22.27;82.48;101003.19;5040159;28;20090;-68
2023/10/09 13:28:56;;;;;;;15.80;7.10;;;;;;;22.29;81.88;100995.84;5042397;28;21928;-68
2023/10/09 13:31:27;;;;;;;16.58;7.32;;;;;;;22.28;82.31;101004.81;5037853;28;20025;-67
2023/10/09 13:33:58;;;;;;;14.27;6.07;;;;;;;22.27;82.06;100997.06;5037052;28;20511;-68
2023/10/09 13:36:31;;;;;;;12.90;6.88;;;;;;;22.27;82.39;100989.09;5043008;28;20040;-70
2023/10/09 13:39:01;;;;;;;12.48;6.00;;;;;;;22.24;82.68;100992.19;5038603;28;20029;-69
2023/10/09 13:41:29;;;;;;;15.80;7.28;;;;;;;22.29;81.74;100987.06;5039887;28;20076;-68
2023/10/09 13:43:56;;;;;;;14.50;6.85;;;;;;;22.32;81.76;100986.66;5045147;28;20034;-69
2023/10/09 13:46:23;;;;;;;14.18;6.38;;;;;;;22.38;81.59;101004.41;5044879;28;20051;-68
2023/10/09 13:48:49;;;;;;;12.60;6.20;;;;;;;22.39;81.51;100995.41;5040422;28;20037;-69
2023/10/09 13:51:18;;;;;;;10.70;6.32;;;;;;;22.34;81.48;100987.25;5046354;28;20040;-69
2023/10/09 13:53:47;;;;;;;15.55;7.03;;;;;;;22.34;81.65;100982.75;5046891;28;20503;-69
2023/10/09 13:56:18;;;;;;;10.27;5.93;;;;;;;22.32;81.98;100986.66;5047735;28;20048;-69
2023/10/09 13:58:45;;;;;;;10.55;5.50;;;;;;;22.30;82.24;100988.69;5042545;28;20032;-69
2023/10/09 14:01:10;;;;;;;12.40;6.45;;;;;;;22.32;82.36;100976.84;5047557;28;20343;-69
2023/10/09 14:03:38;;;;;;;11.77;6.78;;;;;;;22.37;82.05;100986.84;5039564;28;20029;-69
2023/10/09 14:06:12;;;;;;;12.10;6.85;;;;;;;22.37;81.95;100976.22;5045019;28;20039;-69
2023/10/09 14:08:44;;;;;;;11.30;5.57;;;;;;;22.38;82.09;100977.84;5046051;28;20036;-69
2023/10/09 14:11:13;;;;;;;12.75;5.07;;;;;;;22.48;81.73;100971.06;5041990;28;20498;-68
2023/10/09 14:13:41;;;;;;;11.25;6.18;;;;;;;22.54;81.73;100972.09;5039747;28;20496;-69
2023/10/09 14:16:07;;;;;;;11.35;5.43;;;;;;;22.56;81.45;100975.34;5032220;28;20037;-69
2023/10/09 14:18:33;;;;;;;13.35;6.82;;;;;;;22.61;80.63;100982.69;5040614;28;20491;-69
2023/10/09 14:21:09;;;;;;;17.10;7.25;;;;;;;22.61;80.32;100974.72;5034360;28;20112;-68
2023/10/09 14:23:35;;;;;;;10.88;6.47;;;;;;;22.64;80.66;100967.13;5041993;28;20085;-68
2023/10/09 14:26:06;;;;;;;9.60;5.95;;;;;;;22.74;80.74;100971.97;5044427;28;20028;-68